Time;durP1;ratioP1;P1;durP2;ratioP2;P2;SDS_P1;SDS_P2;PMS_P1;PMS_P2;Temp;Humidity;BMP_temperature;BMP_pressure;BME280_temperature;BME280_humidity;BME280_pressure;Samples;Min_cycle;Max_cycle;Signal;HPM_P1;HPM_P2
2022/12/22 03:25:59;;;;;;;1.80;1.70;;;;;;;;;;4996227;28;20979;-42
2022/12/22 03:28:26;;;;;;;2.03;1.93;;;;;;;;;;5002931;28;20408;-42
2022/12/22 03:30:53;;;;;;;2.20;1.67;;;;;;;;;;5002900;28;21101;-42
2022/12/22 03:33:18;;;;;;;1.80;1.70;;;;;;;;;;5004971;28;20410;-43
2022/12/22 03:35:44;;;;;;;1.60;1.50;;;;;;;;;;5000261;28;20411;-42
2022/12/22 03:38:10;;;;;;;1.87;1.70;;;;;;;;;;4996783;28;20420;-41
2022/12/22 03:40:36;;;;;;;2.00;1.90;;;;;;;;;;5002922;28;20510;-42
2022/12/22 03:48:31;;;;;;;1.37;1.27;;;;;;;;;;5003281;28;20445;-44
2022/12/22 03:50:57;;;;;;;2.00;1.90;;;;;;;;;;4999585;28;21118;-42
2022/12/22 03:53:23;;;;;;;1.77;1.67;;;;;;;;;;5001412;28;20411;-42
2022/12/22 03:55:49;;;;;;;1.90;1.70;;;;;;;;;;4998415;28;20442;-42
2022/12/22 03:58:15;;;;;;;1.93;1.33;;;;;;;;;;5002477;28;20415;-42
2022/12/22 04:00:41;;;;;;;2.07;1.97;;;;;;;;;;5000669;28;20411;-41
2022/12/22 04:03:07;;;;;;;1.70;1.60;;;;;;;;;;4998230;28;20441;-42
2022/12/22 04:05:33;;;;;;;2.20;2.10;;;;;;;;;;5001181;28;20979;-42
2022/12/22 04:07:59;;;;;;;1.50;1.40;;;;;;;;;;5000131;28;20747;-43
2022/12/22 04:13:09;;;;;;;1.67;1.57;;;;;;;;;;5001467;28;20972;-42
2022/12/22 04:15:35;;;;;;;1.90;1.80;;;;;;;;;;5007292;28;20408;-41
2022/12/22 04:18:01;;;;;;;1.60;1.50;;;;;;;;;;5006198;28;20416;-42
2022/12/22 04:20:27;;;;;;;1.80;1.70;;;;;;;;;;5000183;28;20463;-42
2022/12/22 04:22:54;;;;;;;2.10;1.90;;;;;;;;;;5006577;28;20882;-42
2022/12/22 04:25:20;;;;;;;2.00;1.90;;;;;;;;;;5005309;28;20506;-42
2022/12/22 04:27:46;;;;;;;1.70;1.60;;;;;;;;;;5006247;28;20418;-42
2022/12/22 04:30:13;;;;;;;1.80;1.70;;;;;;;;;;5004185;28;20416;-42
2022/12/22 04:32:39;;;;;;;2.03;1.93;;;;;;;;;;5005006;28;20511;-44
2022/12/22 04:35:05;;;;;;;2.17;2.07;;;;;;;;;;5004613;28;20597;-42
2022/12/22 04:37:31;;;;;;;1.87;1.70;;;;;;;;;;5003334;28;20812;-42
2022/12/22 04:39:57;;;;;;;1.67;1.57;;;;;;;;;;5008347;28;20446;-44
2022/12/22 04:42:23;;;;;;;1.90;1.80;;;;;;;;;;5002567;28;20968;-42
2022/12/22 04:44:50;;;;;;;2.70;1.93;;;;;;;;;;5003764;28;20996;-42
2022/12/22 04:47:16;;;;;;;1.97;1.47;;;;;;;;;;5004468;28;20412;-43
2022/12/22 04:49:42;;;;;;;2.07;1.97;;;;;;;;;;5003264;28;20924;-43
2022/12/22 04:52:08;;;;;;;2.07;1.37;;;;;;;;;;5003073;28;20432;-44
2022/12/22 04:54:34;;;;;;;2.00;1.90;;;;;;;;;;5009183;28;20796;-41
2022/12/22 04:57:00;;;;;;;1.70;1.60;;;;;;;;;;5005767;28;20778;-43
2022/12/22 04:59:26;;;;;;;1.93;1.83;;;;;;;;;;5000080;28;20412;-42
2022/12/22 05:01:52;;;;;;;2.23;2.03;;;;;;;;;;5001710;28;20435;-43
2022/12/22 05:04:18;;;;;;;1.40;1.30;;;;;;;;;;5004326;28;20466;-43
2022/12/22 05:06:44;;;;;;;2.03;1.93;;;;;;;;;;5006362;28;20403;-43
2022/12/22 05:09:10;;;;;;;1.90;1.77;;;;;;;;;;5004511;28;20837;-43
2022/12/22 05:11:36;;;;;;;1.80;1.70;;;;;;;;;;5006541;28;20436;-42
2022/12/22 05:14:02;;;;;;;2.00;1.60;;;;;;;;;;4993329;28;20436;-43
2022/12/22 05:16:28;;;;;;;3.20;2.50;;;;;;;;;;4994351;28;20413;-43
2022/12/22 05:18:54;;;;;;;2.03;1.67;;;;;;;;;;5009214;28;20414;-43
2022/12/22 05:21:22;;;;;;;2.50;2.30;;;;;;;;;;5003400;28;20929;-43
2022/12/22 05:23:48;;;;;;;2.60;2.50;;;;;;;;;;5004840;28;20454;-43
2022/12/22 05:26:15;;;;;;;2.57;1.63;;;;;;;;;;5002265;28;20937;-43
2022/12/22 05:28:41;;;;;;;2.30;1.70;;;;;;;;;;5002497;28;20502;-43
2022/12/22 05:31:09;;;;;;;1.90;1.80;;;;;;;;;;5004255;28;20445;-43
2022/12/22 05:33:35;;;;;;;1.60;1.50;;;;;;;;;;4997629;28;20838;-43
2022/12/22 05:36:01;;;;;;;2.03;1.93;;;;;;;;;;5005848;28;20415;-43
2022/12/22 05:38:27;;;;;;;1.50;1.40;;;;;;;;;;5001943;28;20419;-43
2022/12/22 05:40:53;;;;;;;2.20;1.97;;;;;;;;;;5001577;28;20744;-42
2022/12/22 05:43:19;;;;;;;1.80;1.70;;;;;;;;;;5003682;28;20431;-43
2022/12/22 05:45:45;;;;;;;1.70;1.60;;;;;;;;;;5002031;28;20978;-43
2022/12/22 05:48:12;;;;;;;2.83;2.03;;;;;;;;;;5001525;28;20176;-43
2022/12/22 05:50:38;;;;;;;2.10;2.00;;;;;;;;;;5000162;28;20405;-43
2022/12/22 05:53:05;;;;;;;2.57;2.37;;;;;;;;;;5005876;28;20227;-43
2022/12/22 05:55:30;;;;;;;2.10;1.90;;;;;;;;;;5000299;28;20419;-43
2022/12/22 05:58:00;;;;;;;2.87;2.60;;;;;;;;;;5000027;28;20412;-43
2022/12/22 06:00:26;;;;;;;3.10;2.37;;;;;;;;;;5001479;28;20423;-43
2022/12/22 06:02:52;;;;;;;2.70;2.27;;;;;;;;;;5000966;28;20432;-43
2022/12/22 06:05:18;;;;;;;2.80;2.07;;;;;;;;;;5002843;28;20501;-43
2022/12/22 06:07:44;;;;;;;2.37;2.17;;;;;;;;;;5004744;28;20435;-43
2022/12/22 06:10:11;;;;;;;2.10;2.00;;;;;;;;;;5004766;28;20761;-43
2022/12/22 06:12:37;;;;;;;2.63;2.40;;;;;;;;;;4998759;28;20493;-43
2022/12/22 06:15:03;;;;;;;4.90;2.73;;;;;;;;;;4997412;28;20439;-43
2022/12/22 06:17:29;;;;;;;3.83;2.30;;;;;;;;;;5004502;28;20791;-43
2022/12/22 06:19:55;;;;;;;2.90;2.10;;;;;;;;;;5003052;28;20407;-43
2022/12/22 06:22:21;;;;;;;3.27;2.97;;;;;;;;;;5002895;28;20446;-43
2022/12/22 06:24:47;;;;;;;3.70;3.13;;;;;;;;;;5002878;28;20491;-43
2022/12/22 06:27:13;;;;;;;3.30;3.00;;;;;;;;;;5003212;28;20477;-42
2022/12/22 06:29:39;;;;;;;7.70;3.50;;;;;;;;;;4997701;28;20976;-42
2022/12/22 06:32:05;;;;;;;7.70;3.13;;;;;;;;;;5003881;28;20485;-42
2022/12/22 06:34:31;;;;;;;3.40;3.17;;;;;;;;;;5001354;28;20412;-43
2022/12/22 06:36:57;;;;;;;4.13;3.37;;;;;;;;;;5000808;28;20423;-43
2022/12/22 06:39:23;;;;;;;3.73;3.30;;;;;;;;;;5003117;28;20410;-43
2022/12/22 06:44:34;;;;;;;4.40;3.70;;;;;;;;;;4993178;28;20478;-43
2022/12/22 06:46:59;;;;;;;3.40;3.10;;;;;;;;;;4999121;28;20978;-43
2022/12/22 06:49:25;;;;;;;3.27;2.87;;;;;;;;;;5003398;28;20418;-43
2022/12/22 06:51:51;;;;;;;4.60;2.80;;;;;;;;;;5001448;28;20431;-42
2022/12/22 06:54:17;;;;;;;3.70;3.40;;;;;;;;;;4996935;28;20419;-43
2022/12/22 06:56:43;;;;;;;8.13;4.00;;;;;;;;;;5000815;28;21025;-43
2022/12/22 06:59:09;;;;;;;3.07;2.77;;;;;;;;;;5001113;28;20411;-43
2022/12/22 07:01:35;;;;;;;3.07;2.83;;;;;;;;;;5003307;28;20494;-42
2022/12/22 07:04:01;;;;;;;3.83;3.53;;;;;;;;;;5001545;28;20420;-43
2022/12/22 07:06:27;;;;;;;4.90;3.07;;;;;;;;;;5004097;28;20428;-43
2022/12/22 07:08:53;;;;;;;3.60;3.33;;;;;;;;;;5000579;28;20407;-43
2022/12/22 07:11:19;;;;;;;30.27;4.47;;;;;;;;;;4995287;28;20520;-43
2022/12/22 07:13:45;;;;;;;6.90;4.03;;;;;;;;;;5003792;28;20412;-43
2022/12/22 07:16:11;;;;;;;48.60;5.63;;;;;;;;;;5000899;28;20416;-43
2022/12/22 07:18:38;;;;;;;76.03;6.10;;;;;;;;;;5003146;28;20403;-42
2022/12/22 07:21:06;;;;;;;6.37;4.00;;;;;;;;;;4999813;28;20565;-43
2022/12/22 07:23:32;;;;;;;5.00;4.50;;;;;;;;;;5002413;28;20451;-43
2022/12/22 07:25:58;;;;;;;7.07;5.43;;;;;;;;;;4999464;28;20844;-43
2022/12/22 07:28:24;;;;;;;6.10;5.40;;;;;;;;;;4994740;28;20466;-42
2022/12/22 07:30:51;;;;;;;6.97;6.30;;;;;;;;;;5002921;28;20442;-43
2022/12/22 07:33:17;;;;;;;9.30;5.97;;;;;;;;;;4999093;28;20518;-42
2022/12/22 07:35:43;;;;;;;8.20;6.07;;;;;;;;;;5000757;28;20427;-42
2022/12/22 07:38:09;;;;;;;9.03;7.10;;;;;;;;;;5000771;28;20412;-42
2022/12/22 07:40:35;;;;;;;8.20;6.23;;;;;;;;;;4991946;28;20408;-42
2022/12/22 07:43:01;;;;;;;8.97;6.40;;;;;;;;;;5000047;28;20810;-42
2022/12/22 07:45:27;;;;;;;12.20;7.67;;;;;;;;;;5005324;28;20467;-42
2022/12/22 07:47:58;;;;;;;21.47;8.10;;;;;;;;;;5001991;28;20788;-42
2022/12/22 07:50:24;;;;;;;11.33;7.60;;;;;;;;;;5000425;28;20411;-42
2022/12/22 07:52:54;;;;;;;12.20;7.70;;;;;;;;;;5001518;28;20435;-42
2022/12/22 07:55:20;;;;;;;10.70;7.17;;;;;;;;;;5005879;28;20431;-42
2022/12/22 07:57:46;;;;;;;16.43;9.23;;;;;;;;;;5007459;28;20486;-42
2022/12/22 08:00:13;;;;;;;13.87;8.40;;;;;;;;;;5003023;28;20524;-42
2022/12/22 08:02:39;;;;;;;16.13;9.00;;;;;;;;;;5006202;28;20516;-43
2022/12/22 08:05:05;;;;;;;14.53;9.87;;;;;;;;;;5009593;28;20470;-43
2022/12/22 08:07:34;;;;;;;14.47;10.10;;;;;;;;;;4999593;28;20498;-42
2022/12/22 08:10:00;;;;;;;17.93;10.03;;;;;;;;;;5007102;28;20478;-42
2022/12/22 08:12:28;;;;;;;20.53;12.37;;;;;;;;;;5003705;28;20964;-42
2022/12/22 08:14:54;;;;;;;17.10;10.50;;;;;;;;;;5004385;28;20414;-42
2022/12/22 08:17:20;;;;;;;18.70;11.50;;;;;;;;;;5005633;28;20802;-42
2022/12/22 08:19:47;;;;;;;23.67;13.67;;;;;;;;;;5003731;28;20478;-42
2022/12/22 08:22:13;;;;;;;23.93;14.27;;;;;;;;;;5003418;28;20462;-42
2022/12/22 08:24:39;;;;;;;21.80;14.30;;;;;;;;;;5003510;28;20502;-42
2022/12/22 08:27:08;;;;;;;28.43;14.60;;;;;;;;;;5008844;28;20461;-42
2022/12/22 08:29:39;;;;;;;24.03;12.70;;;;;;;;;;4994994;28;20987;-42
2022/12/22 08:32:05;;;;;;;30.90;15.77;;;;;;;;;;5000526;28;20442;-42
2022/12/22 08:34:31;;;;;;;23.93;15.27;;;;;;;;;;5003937;28;20405;-42
2022/12/22 08:36:58;;;;;;;29.77;15.03;;;;;;;;;;5003506;28;20502;-42
2022/12/22 08:39:25;;;;;;;25.63;14.37;;;;;;;;;;5004601;28;20415;-43
2022/12/22 08:41:51;;;;;;;26.37;14.73;;;;;;;;;;5005343;28;20519;-42
2022/12/22 08:44:18;;;;;;;27.00;14.60;;;;;;;;;;5006869;28;20958;-42
2022/12/22 08:46:44;;;;;;;28.83;15.67;;;;;;;;;;5002328;28;20796;-42
2022/12/22 08:49:09;;;;;;;25.00;13.63;;;;;;;;;;4999091;28;20514;-42
2022/12/22 08:51:35;;;;;;;24.50;14.10;;;;;;;;;;5005783;28;20574;-42
2022/12/22 08:54:01;;;;;;;29.60;16.13;;;;;;;;;;5004538;28;20430;-43
2022/12/22 08:56:27;;;;;;;24.50;14.50;;;;;;;;;;5006049;28;20412;-42
2022/12/22 08:58:53;;;;;;;22.77;14.43;;;;;;;;;;5002970;28;20459;-42
2022/12/22 09:01:20;;;;;;;29.57;15.33;;;;;;;;;;5004483;28;20446;-42
2022/12/22 09:03:53;;;;;;;31.43;16.33;;;;;;;;;;5001085;28;20499;-42
2022/12/22 09:06:19;;;;;;;33.63;16.77;;;;;;;;;;5004673;28;20471;-42
2022/12/22 09:08:46;;;;;;;24.63;14.57;;;;;;;;;;5005936;28;20419;-42
2022/12/22 09:11:12;;;;;;;31.33;17.70;;;;;;;;;;5001121;28;20504;-42
2022/12/22 09:13:38;;;;;;;32.03;16.13;;;;;;;;;;4997301;28;20440;-42
2022/12/22 09:16:05;;;;;;;28.00;14.90;;;;;;;;;;4994475;28;20417;-42
2022/12/22 09:18:31;;;;;;;31.47;14.93;;;;;;;;;;5002567;28;20444;-42
2022/12/22 09:20:57;;;;;;;43.70;14.13;;;;;;;;;;5001694;28;20868;-43
2022/12/22 09:23:23;;;;;;;24.60;13.87;;;;;;;;;;5006833;28;20452;-42
2022/12/22 09:25:49;;;;;;;29.00;14.30;;;;;;;;;;5003932;28;20462;-42
2022/12/22 09:28:15;;;;;;;28.83;14.37;;;;;;;;;;4998964;28;21152;-42
2022/12/22 09:30:41;;;;;;;31.70;15.90;;;;;;;;;;4995401;28;20793;-42
2022/12/22 09:33:07;;;;;;;33.27;15.63;;;;;;;;;;4994079;28;20447;-42
2022/12/22 09:35:33;;;;;;;27.63;13.93;;;;;;;;;;5005669;28;20419;-42
2022/12/22 09:37:59;;;;;;;37.60;17.50;;;;;;;;;;5000808;28;20420;-42
2022/12/22 09:40:26;;;;;;;33.47;15.37;;;;;;;;;;5009628;28;20864;-42
2022/12/22 09:42:52;;;;;;;25.37;14.70;;;;;;;;;;5001506;28;20440;-43
2022/12/22 09:45:21;;;;;;;33.50;16.70;;;;;;;;;;5003344;28;20460;-42
2022/12/22 09:47:52;;;;;;;25.50;13.40;;;;;;;;;;5010386;28;20407;-42
2022/12/22 09:50:22;;;;;;;31.03;14.30;;;;;;;;;;4997253;28;20507;-43
2022/12/22 09:52:49;;;;;;;30.10;15.20;;;;;;;;;;5001875;28;20427;-42
2022/12/22 09:55:25;;;;;;;32.10;15.70;;;;;;;;;;5003027;28;20910;-42
2022/12/22 09:57:52;;;;;;;27.87;14.30;;;;;;;;;;4996614;28;20443;-42
2022/12/22 10:00:19;;;;;;;29.00;14.90;;;;;;;;;;5002400;28;20423;-42
2022/12/22 10:02:56;;;;;;;26.40;14.17;;;;;;;;;;5001559;28;20469;-42
2022/12/22 10:05:29;;;;;;;33.83;14.53;;;;;;;;;;5001338;28;20556;-43
2022/12/22 10:08:00;;;;;;;27.10;14.50;;;;;;;;;;5005065;28;20756;-43
2022/12/22 10:10:28;;;;;;;29.57;14.47;;;;;;;;;;4999250;28;20929;-43
2022/12/22 10:12:55;;;;;;;31.33;16.20;;;;;;;;;;4998571;28;20435;-42
2022/12/22 10:15:21;;;;;;;27.47;13.27;;;;;;;;;;5003468;28;20475;-42
2022/12/22 10:17:49;;;;;;;28.47;14.50;;;;;;;;;;5004787;28;20412;-42
2022/12/22 10:20:19;;;;;;;26.70;13.90;;;;;;;;;;5000306;28;20503;-42
2022/12/22 10:22:50;;;;;;;24.63;13.47;;;;;;;;;;5002926;28;20428;-42
2022/12/22 10:25:25;;;;;;;25.77;13.73;;;;;;;;;;5003928;28;20948;-42
2022/12/22 10:27:54;;;;;;;26.63;12.20;;;;;;;;;;5000156;28;20975;-42
2022/12/22 10:30:22;;;;;;;34.63;15.60;;;;;;;;;;5002562;28;20412;-42
2022/12/22 10:33:04;;;;;;;35.87;18.00;;;;;;;;;;5005241;28;20486;-42
2022/12/22 10:35:47;;;;;;;32.33;17.03;;;;;;;;;;5001480;28;20446;-42
2022/12/22 10:38:22;;;;;;;43.40;19.63;;;;;;;;;;4999017;28;20427;-42
2022/12/22 10:40:50;;;;;;;44.57;21.10;;;;;;;;;;4998960;28;20491;-42
2022/12/22 10:43:20;;;;;;;51.43;21.37;;;;;;;;;;5002296;28;20996;-42
2022/12/22 10:45:49;;;;;;;56.40;22.83;;;;;;;;;;5003881;28;20553;-42
2022/12/22 10:48:15;;;;;;;48.30;23.50;;;;;;;;;;4999107;28;20412;-42
2022/12/22 10:50:46;;;;;;;50.57;22.63;;;;;;;;;;5002762;28;20786;-41
2022/12/22 10:53:12;;;;;;;53.53;22.53;;;;;;;;;;5003439;28;20908;-42
2022/12/22 10:55:38;;;;;;;54.07;22.83;;;;;;;;;;4997965;28;20406;-43
2022/12/22 10:58:10;;;;;;;47.27;21.50;;;;;;;;;;5004250;28;20908;-42
2022/12/22 11:00:37;;;;;;;52.93;22.50;;;;;;;;;;4992942;28;20908;-41
2022/12/22 11:03:04;;;;;;;48.63;19.80;;;;;;;;;;5001321;28;20440;-42
2022/12/22 11:05:31;;;;;;;42.57;20.13;;;;;;;;;;5003317;28;20489;-42
2022/12/22 11:07:59;;;;;;;38.43;19.00;;;;;;;;;;5000713;28;20446;-43
2022/12/22 11:10:44;;;;;;;38.90;19.00;;;;;;;;;;5001355;28;20490;-42
2022/12/22 11:13:19;;;;;;;41.20;19.83;;;;;;;;;;5000936;28;20424;-42
2022/12/22 11:15:48;;;;;;;50.37;19.17;;;;;;;;;;5004788;28;20465;-42
2022/12/22 11:18:14;;;;;;;45.00;19.60;;;;;;;;;;5005157;28;20465;-42
2022/12/22 11:21:00;;;;;;;36.83;19.40;;;;;;;;;;4991883;28;20403;-42
2022/12/22 11:23:38;;;;;;;40.43;19.87;;;;;;;;;;4991312;28;20420;-42
2022/12/22 11:26:22;;;;;;;42.20;19.70;;;;;;;;;;4992361;28;20525;-42
2022/12/22 11:28:55;;;;;;;37.40;19.37;;;;;;;;;;4992156;28;20490;-44
2022/12/22 11:31:36;;;;;;;44.53;22.57;;;;;;;;;;4991142;28;20523;-42
2022/12/22 11:34:09;;;;;;;44.60;19.87;;;;;;;;;;4992332;28;20490;-42
2022/12/22 11:36:38;;;;;;;42.60;19.53;;;;;;;;;;4989471;28;20847;-43
2022/12/22 11:39:07;;;;;;;37.33;19.10;;;;;;;;;;4972789;28;20421;-43
2022/12/22 11:41:33;;;;;;;42.57;20.80;;;;;;;;;;4991257;28;20921;-42
2022/12/22 11:44:11;;;;;;;43.03;19.90;;;;;;;;;;4991578;28;20458;-42
2022/12/22 11:46:56;;;;;;;45.23;23.47;;;;;;;;;;4992240;28;20512;-41
2022/12/22 11:49:31;;;;;;;35.50;20.10;;;;;;;;;;4992057;28;20414;-44
2022/12/22 11:52:09;;;;;;;33.60;18.57;;;;;;;;;;4990930;28;20951;-42
2022/12/22 11:54:54;;;;;;;26.33;16.70;;;;;;;;;;4991904;28;20455;-42
2022/12/22 11:57:25;;;;;;;21.13;13.20;;;;;;;;;;4991926;28;20448;-43
2022/12/22 12:00:03;;;;;;;22.23;13.23;;;;;;;;;;4991851;28;20420;-42
2022/12/22 12:02:38;;;;;;;20.60;11.67;;;;;;;;;;4990864;28;20519;-42
2022/12/22 12:05:23;;;;;;;19.93;11.10;;;;;;;;;;4991870;28;20471;-42
2022/12/22 12:07:53;;;;;;;19.53;11.70;;;;;;;;;;4991857;28;20507;-41
2022/12/22 12:10:31;;;;;;;22.13;11.50;;;;;;;;;;4991791;28;20916;-42
2022/12/22 12:13:00;;;;;;;23.33;11.90;;;;;;;;;;4991634;28;20794;-42
2022/12/22 12:15:30;;;;;;;18.43;10.47;;;;;;;;;;4991861;28;20451;-42
2022/12/22 12:18:02;;;;;;;18.27;9.50;;;;;;;;;;4991763;28;20423;-42
2022/12/22 12:20:41;;;;;;;21.50;11.00;;;;;;;;;;4990224;28;20435;-42
2022/12/22 12:23:30;;;;;;;23.50;11.23;;;;;;;;;;4991563;28;20451;-43
2022/12/22 12:26:04;;;;;;;19.13;11.40;;;;;;;;;;4991638;28;20508;-42
2022/12/22 12:28:54;;;;;;;19.30;11.13;;;;;;;;;;4991968;28;20423;-42
2022/12/22 12:31:23;;;;;;;21.77;11.33;;;;;;;;;;4988735;28;20440;-43
2022/12/22 12:33:53;;;;;;;17.60;9.90;;;;;;;;;;4988271;28;20413;-44
2022/12/22 12:36:38;;;;;;;18.87;10.20;;;;;;;;;;4994240;28;20438;-42
2022/12/22 12:39:16;;;;;;;16.87;10.00;;;;;;;;;;4995119;28;20800;-43
2022/12/22 12:41:48;;;;;;;16.27;8.80;;;;;;;;;;4994826;28;20435;-43
2022/12/22 12:44:18;;;;;;;15.20;8.80;;;;;;;;;;4988677;28;20958;-42
2022/12/22 12:46:51;;;;;;;17.43;11.50;;;;;;;;;;4978072;28;20414;-42
2022/12/22 12:49:35;;;;;;;17.60;10.50;;;;;;;;;;4993696;28;20409;-43
2022/12/22 12:52:01;;;;;;;18.80;11.83;;;;;;;;;;4994339;28;20520;-42
2022/12/22 12:54:30;;;;;;;17.73;10.80;;;;;;;;;;4994602;28;20782;-42
2022/12/22 12:57:01;;;;;;;18.37;11.00;;;;;;;;;;4993583;28;20423;-42
2022/12/22 12:59:42;;;;;;;20.20;12.27;;;;;;;;;;4994555;28;20425;-42
2022/12/22 13:02:26;;;;;;;25.50;11.90;;;;;;;;;;4994266;28;20803;-42
2022/12/22 13:05:04;;;;;;;22.40;12.23;;;;;;;;;;4993937;28;20828;-43
2022/12/22 13:07:49;;;;;;;19.27;11.63;;;;;;;;;;4994076;28;20419;-42
2022/12/22 13:10:19;;;;;;;21.83;12.33;;;;;;;;;;4994514;28;20463;-42
2022/12/22 13:12:50;;;;;;;19.83;11.50;;;;;;;;;;4993997;28;20488;-43
2022/12/22 13:15:34;;;;;;;14.73;11.03;;;;;;;;;;4994431;28;20416;-42
2022/12/22 13:18:02;;;;;;;23.20;12.13;;;;;;;;;;4994459;28;20423;-42
2022/12/22 13:20:32;;;;;;;18.73;11.97;;;;;;;;;;4994408;28;20463;-42
2022/12/22 13:23:00;;;;;;;24.97;11.00;;;;;;;;;;4994420;28;20420;-42
2022/12/22 13:25:30;;;;;;;14.30;9.50;;;;;;;;;;5005203;28;20444;-42
2022/12/22 13:27:57;;;;;;;15.53;10.03;;;;;;;;;;4997646;28;20450;-42
2022/12/22 13:30:23;;;;;;;16.93;10.10;;;;;;;;;;5004105;28;20530;-42
2022/12/22 13:32:49;;;;;;;16.43;9.77;;;;;;;;;;5001667;28;20428;-42
2022/12/22 13:35:18;;;;;;;11.73;8.97;;;;;;;;;;5008738;28;20411;-41
2022/12/22 13:37:48;;;;;;;16.47;8.97;;;;;;;;;;5004023;28;20415;-42
2022/12/22 13:40:37;;;;;;;15.77;10.13;;;;;;;;;;5000521;28;20842;-42
2022/12/22 13:43:12;;;;;;;14.30;9.00;;;;;;;;;;5001335;28;20479;-42
2022/12/22 13:45:39;;;;;;;12.60;9.00;;;;;;;;;;4995018;28;20455;-42
2022/12/22 13:48:08;;;;;;;13.40;9.07;;;;;;;;;;5001086;28;20408;-42
2022/12/22 13:50:36;;;;;;;15.97;9.80;;;;;;;;;;4993620;28;20965;-42
2022/12/22 13:53:02;;;;;;;13.77;8.93;;;;;;;;;;5002054;28;20791;-43
2022/12/22 13:55:30;;;;;;;12.97;9.43;;;;;;;;;;5003363;28;20419;-42
2022/12/22 13:58:00;;;;;;;15.80;9.27;;;;;;;;;;5005593;28;20415;-43
2022/12/22 14:00:28;;;;;;;18.30;9.07;;;;;;;;;;4996082;28;20458;-42
2022/12/22 14:02:54;;;;;;;15.53;9.83;;;;;;;;;;5004706;28;20451;-43
2022/12/22 14:05:20;;;;;;;15.77;9.70;;;;;;;;;;5002008;28;20468;-42
2022/12/22 14:08:01;;;;;;;14.60;9.83;;;;;;;;;;5003130;28;20404;-42
2022/12/22 14:10:38;;;;;;;13.93;10.30;;;;;;;;;;5003185;28;20403;-43
2022/12/22 14:13:05;;;;;;;15.23;9.70;;;;;;;;;;5001899;28;20433;-42
2022/12/22 14:15:31;;;;;;;15.37;9.13;;;;;;;;;;5001990;28;20412;-42
2022/12/22 14:17:57;;;;;;;13.27;9.67;;;;;;;;;;5001532;28;20413;-43
2022/12/22 14:20:26;;;;;;;17.53;9.73;;;;;;;;;;5006370;28;20423;-43
2022/12/22 14:22:55;;;;;;;14.47;10.00;;;;;;;;;;5002431;28;20438;-42
2022/12/22 14:25:21;;;;;;;13.60;9.60;;;;;;;;;;4998292;28;20460;-42
2022/12/22 14:27:48;;;;;;;18.90;10.60;;;;;;;;;;4999565;28;20413;-42
2022/12/22 14:30:16;;;;;;;12.20;9.77;;;;;;;;;;5002284;28;20450;-42
2022/12/22 14:32:44;;;;;;;16.67;10.17;;;;;;;;;;5004047;28;20469;-43
2022/12/22 14:35:20;;;;;;;15.70;10.97;;;;;;;;;;4998962;28;20405;-42
2022/12/22 14:37:50;;;;;;;19.20;11.80;;;;;;;;;;5002555;28;20412;-42
2022/12/22 14:40:32;;;;;;;13.37;9.37;;;;;;;;;;5002801;28;20924;-42
2022/12/22 14:43:00;;;;;;;13.07;8.20;;;;;;;;;;5000042;28;20937;-42
2022/12/22 14:45:26;;;;;;;16.67;8.87;;;;;;;;;;5001678;28;20463;-42
2022/12/22 14:47:53;;;;;;;13.70;8.70;;;;;;;;;;5004115;28;20408;-42
2022/12/22 14:50:21;;;;;;;12.87;8.20;;;;;;;;;;4999455;28;20423;-42
2022/12/22 14:52:50;;;;;;;16.30;9.53;;;;;;;;;;5000029;28;20436;-42
2022/12/22 14:55:29;;;;;;;18.03;9.80;;;;;;;;;;5000966;28;20509;-43
2022/12/22 14:58:00;;;;;;;12.07;9.00;;;;;;;;;;5000563;28;20408;-42
2022/12/22 15:00:28;;;;;;;15.00;8.50;;;;;;;;;;5002497;28;20503;-43
2022/12/22 15:02:55;;;;;;;11.37;8.07;;;;;;;;;;5002316;28;20435;-42
2022/12/22 15:05:31;;;;;;;11.27;7.90;;;;;;;;;;5004098;28;20520;-43
2022/12/22 15:07:57;;;;;;;14.77;9.13;;;;;;;;;;5001333;28;20419;-42
2022/12/22 15:10:25;;;;;;;18.60;9.83;;;;;;;;;;4995265;28;20420;-42
2022/12/22 15:12:53;;;;;;;13.73;8.90;;;;;;;;;;5003187;28;20813;-43
2022/12/22 15:15:20;;;;;;;13.70;8.63;;;;;;;;;;5000980;28;20424;-42
2022/12/22 15:17:48;;;;;;;15.93;8.57;;;;;;;;;;5002308;28;20408;-42
2022/12/22 15:20:15;;;;;;;12.97;8.97;;;;;;;;;;5001322;28;21032;-42
2022/12/22 15:22:42;;;;;;;12.20;9.10;;;;;;;;;;5000451;28;20471;-42
2022/12/22 15:25:11;;;;;;;13.87;9.53;;;;;;;;;;5000560;28;20462;-42
2022/12/22 15:27:37;;;;;;;13.73;9.37;;;;;;;;;;5000581;28;20411;-42
2022/12/22 15:30:03;;;;;;;11.60;8.93;;;;;;;;;;5004813;28;20419;-41
2022/12/22 15:32:29;;;;;;;15.77;10.50;;;;;;;;;;4998347;28;20438;-43
2022/12/22 15:34:55;;;;;;;18.47;10.00;;;;;;;;;;4998833;28;20416;-42
2022/12/22 15:37:21;;;;;;;17.50;10.33;;;;;;;;;;5000372;28;20986;-42
2022/12/22 15:39:47;;;;;;;16.70;9.30;;;;;;;;;;5000129;28;20457;-42
2022/12/22 15:42:13;;;;;;;15.73;9.63;;;;;;;;;;5000272;28;20442;-42
2022/12/22 15:44:39;;;;;;;13.30;9.63;;;;;;;;;;5004052;28;20464;-42
2022/12/22 15:47:05;;;;;;;13.33;9.00;;;;;;;;;;5003687;28;20411;-42
2022/12/22 15:49:31;;;;;;;11.90;8.87;;;;;;;;;;4997314;28;20789;-43
2022/12/22 15:51:59;;;;;;;15.97;8.90;;;;;;;;;;4996271;28;20462;-42
2022/12/22 15:54:26;;;;;;;13.40;9.27;;;;;;;;;;5002628;28;20805;-42
2022/12/22 15:56:53;;;;;;;16.20;9.40;;;;;;;;;;5000522;28;20407;-43
2022/12/22 15:59:21;;;;;;;15.47;9.43;;;;;;;;;;5001692;28;20840;-42
2022/12/22 16:01:49;;;;;;;12.80;10.23;;;;;;;;;;5000878;28;20434;-42
2022/12/22 16:04:16;;;;;;;23.40;10.00;;;;;;;;;;5001979;28;20777;-42
2022/12/22 16:06:42;;;;;;;16.60;10.80;;;;;;;;;;4996929;28;20411;-42
2022/12/22 16:09:22;;;;;;;16.17;9.50;;;;;;;;;;5003326;28;20490;-42
2022/12/22 16:11:48;;;;;;;11.90;8.50;;;;;;;;;;5004652;28;20943;-42
2022/12/22 16:14:16;;;;;;;15.40;10.73;;;;;;;;;;5002635;28;20403;-42
2022/12/22 16:16:42;;;;;;;15.80;8.57;;;;;;;;;;5004289;28;20457;-42
2022/12/22 16:19:13;;;;;;;17.80;9.87;;;;;;;;;;5003952;28;20407;-42
2022/12/22 16:21:39;;;;;;;15.03;10.03;;;;;;;;;;4996111;28;20982;-42
2022/12/22 16:24:06;;;;;;;12.97;9.10;;;;;;;;;;5003726;28;20464;-42
2022/12/22 16:26:32;;;;;;;14.67;9.07;;;;;;;;;;5009119;28;20535;-43
2022/12/22 16:28:58;;;;;;;15.80;9.50;;;;;;;;;;5006164;28;20418;-42
2022/12/22 16:31:25;;;;;;;12.40;9.00;;;;;;;;;;5000037;28;20440;-44
2022/12/22 16:33:51;;;;;;;17.30;9.10;;;;;;;;;;5000808;28;20420;-42
2022/12/22 16:36:17;;;;;;;13.10;8.97;;;;;;;;;;5002489;28;20423;-42
2022/12/22 16:38:44;;;;;;;13.43;10.47;;;;;;;;;;4992537;28;20506;-43
2022/12/22 16:41:22;;;;;;;17.77;9.90;;;;;;;;;;4993817;28;20439;-42
2022/12/22 16:43:49;;;;;;;14.70;10.10;;;;;;;;;;4993974;28;20435;-42
2022/12/22 16:46:17;;;;;;;15.70;9.30;;;;;;;;;;4994557;28;20910;-42
2022/12/22 16:48:51;;;;;;;12.73;9.87;;;;;;;;;;4994427;28;20781;-42
2022/12/22 16:51:28;;;;;;;17.83;11.00;;;;;;;;;;4994929;28;20435;-42
2022/12/22 16:53:54;;;;;;;16.10;10.40;;;;;;;;;;4992508;28;20418;-42
2022/12/22 16:56:25;;;;;;;14.80;9.23;;;;;;;;;;4994435;28;20420;-42
2022/12/22 16:58:51;;;;;;;14.30;11.20;;;;;;;;;;4993267;28;20929;-42
2022/12/22 17:01:38;;;;;;;20.07;11.00;;;;;;;;;;4993212;28;20419;-42
2022/12/22 17:04:06;;;;;;;13.90;9.73;;;;;;;;;;4975391;28;20479;-42
2022/12/22 17:06:32;;;;;;;14.03;10.63;;;;;;;;;;4993763;28;20466;-42
2022/12/22 17:08:58;;;;;;;15.37;10.00;;;;;;;;;;4994222;28;20511;-41
2022/12/22 17:11:28;;;;;;;17.53;11.27;;;;;;;;;;4994526;28;21012;-42
2022/12/22 17:13:58;;;;;;;17.47;11.07;;;;;;;;;;4995068;28;20431;-43
2022/12/22 17:16:24;;;;;;;13.63;9.60;;;;;;;;;;4994048;28;20533;-44
2022/12/22 17:18:50;;;;;;;14.70;9.70;;;;;;;;;;4993863;28;20490;-41
2022/12/22 17:21:17;;;;;;;23.03;11.60;;;;;;;;;;5002581;28;20447;-42
2022/12/22 17:23:48;;;;;;;16.23;10.07;;;;;;;;;;5004732;28;20438;-42
2022/12/22 17:26:15;;;;;;;16.67;10.80;;;;;;;;;;5003472;28;20469;-42
2022/12/22 17:28:41;;;;;;;15.00;11.07;;;;;;;;;;5003533;28;20416;-42
2022/12/22 17:31:07;;;;;;;15.60;10.40;;;;;;;;;;5002219;28;20776;-43
2022/12/22 17:33:33;;;;;;;14.87;10.33;;;;;;;;;;5002696;28;20423;-43
2022/12/22 17:35:59;;;;;;;12.93;9.07;;;;;;;;;;5006851;28;20434;-41
2022/12/22 17:38:26;;;;;;;13.73;9.77;;;;;;;;;;5001398;28;20422;-42
2022/12/22 17:40:52;;;;;;;16.57;9.30;;;;;;;;;;5000977;28;20457;-43
2022/12/22 17:43:19;;;;;;;14.13;9.17;;;;;;;;;;5002702;28;20438;-42
2022/12/22 17:45:45;;;;;;;11.90;8.73;;;;;;;;;;5002156;28;20467;-42
2022/12/22 17:48:12;;;;;;;13.00;8.80;;;;;;;;;;5002908;28;20494;-42
2022/12/22 17:50:38;;;;;;;10.37;8.07;;;;;;;;;;5006360;28;20412;-42
2022/12/22 17:53:09;;;;;;;15.23;9.13;;;;;;;;;;5009717;28;20674;-42
2022/12/22 17:55:35;;;;;;;14.90;9.33;;;;;;;;;;4992616;28;20493;-42
2022/12/22 17:58:01;;;;;;;9.80;7.37;;;;;;;;;;4998605;28;20458;-41
2022/12/22 18:00:28;;;;;;;10.77;7.73;;;;;;;;;;5004325;28;20422;-42
2022/12/22 18:02:54;;;;;;;10.60;8.03;;;;;;;;;;5004262;28;20473;-41
2022/12/22 18:05:22;;;;;;;10.03;7.10;;;;;;;;;;5003712;28;20472;-41
2022/12/22 18:07:49;;;;;;;12.17;8.80;;;;;;;;;;4998539;28;20408;-41
2022/12/22 18:10:29;;;;;;;9.87;6.93;;;;;;;;;;4989402;28;20426;-41
2022/12/22 18:12:56;;;;;;;8.33;6.43;;;;;;;;;;4993386;28;20791;-41